Time;durP1;ratioP1;P1;durP2;ratioP2;P2;SDS_P1;SDS_P2;PMS_P1;PMS_P2;Temp;Humidity;BMP_temperature;BMP_pressure;BME280_temperature;BME280_humidity;BME280_pressure;Samples;Min_cycle;Max_cycle;Signal;HPM_P1;HPM_P2
2023/09/29 00:00:58;;;;;;;901.47;809.83;;;15.50;99.90;;;;;;4874330;29;20063;-85
2023/09/29 00:03:24;;;;;;;969.03;864.67;;;15.50;99.90;;;;;;4891607;29;20048;-85
2023/09/29 00:05:50;;;;;;;1019.58;885.95;;;15.50;99.90;;;;;;4889738;29;20055;-85
2023/09/29 00:08:17;;;;;;;951.55;849.10;;;15.50;99.90;;;;;;4891171;29;20127;-85
2023/09/29 00:10:45;;;;;;;931.40;833.63;;;15.50;99.90;;;;;;4891540;29;20048;-85
2023/09/29 00:13:14;;;;;;;927.90;830.65;;;15.50;99.90;;;;;;4890960;29;20052;-85
2023/09/29 00:15:39;;;;;;;959.03;855.53;;;15.50;99.90;;;;;;4875132;29;20056;-85
2023/09/29 00:18:07;;;;;;;975.00;868.88;;;15.50;99.90;;;;;;4885176;29;20053;-85
2023/09/29 00:20:34;;;;;;;969.22;863.92;;;15.50;99.90;;;;;;4874783;29;20485;-85
2023/09/29 00:23:01;;;;;;;923.13;825.78;;;15.60;99.90;;;;;;4875633;29;20056;-85
2023/09/29 00:25:27;;;;;;;901.95;809.58;;;15.50;99.90;;;;;;4875270;29;20049;-85
2023/09/29 00:27:53;;;;;;;948.78;846.15;;;15.50;99.90;;;;;;4889290;29;20103;-84
2023/09/29 00:30:19;;;;;;;962.60;856.67;;;15.50;99.90;;;;;;4889593;29;20485;-85
2023/09/29 00:32:51;;;;;;;943.67;841.65;;;15.50;99.90;;;;;;4874801;29;20067;-85
2023/09/29 00:35:27;;;;;;;887.07;797.47;;;15.50;99.90;;;;;;4874451;29;20044;-85
2023/09/29 00:38:02;;;;;;;962.20;854.90;;;15.50;99.90;;;;;;4874383;29;20519;-85
2023/09/29 00:40:29;;;;;;;1031.45;876.13;;;15.50;99.90;;;;;;4889750;29;20120;-85
2023/09/29 00:42:57;;;;;;;1051.75;906.45;;;15.50;99.90;;;;;;4890445;29;20063;-85
2023/09/29 00:45:25;;;;;;;1011.28;879.80;;;15.50;99.90;;;;;;4871436;29;20112;-85
2023/09/29 00:47:59;;;;;;;1062.95;896.08;;;15.60;99.90;;;;;;4888852;29;20325;-84
2023/09/29 00:50:29;;;;;;;972.03;866.33;;;15.60;99.90;;;;;;4874715;29;20064;-85
2023/09/29 00:53:05;;;;;;;1043.75;887.28;;;15.60;99.90;;;;;;4874614;29;20056;-85
2023/09/29 00:55:32;;;;;;;967.03;860.85;;;15.60;99.90;;;;;;4889658;29;20155;-85
2023/09/29 00:57:59;;;;;;;912.55;817.25;;;15.60;99.90;;;;;;4874726;29;20052;-85
2023/09/29 01:02:53;;;;;;;1019.22;881.20;;;15.60;99.90;;;;;;4889387;29;20048;-85
2023/09/29 01:05:19;;;;;;;907.10;812.17;;;15.50;99.90;;;;;;4890163;29;20072;-85
2023/09/29 01:07:46;;;;;;;917.80;823.40;;;15.50;99.90;;;;;;4875006;29;20412;-83
2023/09/29 01:10:13;;;;;;;901.67;808.00;;;15.50;99.90;;;;;;4889318;29;20079;-82
2023/09/29 01:12:42;;;;;;;898.30;806.58;;;15.50;99.90;;;;;;4890719;29;20124;-84
2023/09/29 01:15:13;;;;;;;928.55;829.90;;;15.50;99.90;;;;;;4873886;29;20048;-83
2023/09/29 01:17:46;;;;;;;926.30;829.80;;;15.50;99.90;;;;;;4874465;29;20152;-83
2023/09/29 01:20:28;;;;;;;959.90;857.00;;;15.60;99.90;;;;;;4874843;29;20568;-83
2023/09/29 01:22:56;;;;;;;942.95;842.38;;;15.50;99.90;;;;;;4873608;29;20055;-83
2023/09/29 01:25:22;;;;;;;965.20;859.22;;;15.50;99.90;;;;;;4875171;29;20060;-83
2023/09/29 01:27:52;;;;;;;926.75;830.70;;;15.50;99.90;;;;;;4883698;29;20052;-83
2023/09/29 01:30:18;;;;;;;963.75;858.70;;;15.50;99.90;;;;;;4874440;29;20048;-83
2023/09/29 01:32:47;;;;;;;953.63;852.10;;;15.40;99.90;;;;;;4889315;29;20063;-83
2023/09/29 01:35:16;;;;;;;894.38;801.42;;;15.40;99.90;;;;;;4874944;29;20040;-83
2023/09/29 01:37:42;;;;;;;1013.17;875.60;;;15.40;99.90;;;;;;4892347;29;20052;-83
2023/09/29 01:40:09;;;;;;;954.28;851.55;;;15.40;99.90;;;;;;4878516;29;20091;-83
2023/09/29 01:42:35;;;;;;;912.80;818.03;;;15.40;99.90;;;;;;4878129;29;20064;-83
2023/09/29 01:45:05;;;;;;;978.17;871.53;;;15.40;99.90;;;;;;4891886;29;20047;-83
2023/09/29 01:47:31;;;;;;;949.50;846.20;;;15.40;99.90;;;;;;4877434;29;20120;-83
2023/09/29 01:49:57;;;;;;;917.92;822.10;;;15.40;99.90;;;;;;4877906;29;20053;-83
2023/09/29 01:52:23;;;;;;;949.45;848.65;;;15.40;99.90;;;;;;4877173;29;20103;-83
2023/09/29 01:54:51;;;;;;;971.83;865.38;;;15.40;99.90;;;;;;4893018;29;20084;-83
2023/09/29 01:57:17;;;;;;;959.55;856.40;;;15.40;99.90;;;;;;4894015;29;20054;-83
2023/09/29 01:59:47;;;;;;;994.60;884.22;;;15.40;99.90;;;;;;4891755;29;20143;-83
2023/09/29 02:02:16;;;;;;;979.88;871.45;;;15.40;99.90;;;;;;4893202;29;20048;-83
2023/09/29 02:04:48;;;;;;;1031.78;897.42;;;15.40;99.90;;;;;;4891855;29;20059;-83
2023/09/29 02:07:13;;;;;;;1054.25;897.25;;;14.80;99.90;;;;;;4893047;29;20060;-83
2023/09/29 02:09:39;;;;;;;961.67;859.55;;;15.40;99.90;;;;;;4877112;29;20557;-83
2023/09/29 02:12:06;;;;;;;1012.83;887.50;;;15.40;99.90;;;;;;4892790;29;20120;-82
2023/09/29 02:14:32;;;;;;;968.10;861.80;;;15.40;99.90;;;;;;4876713;29;20400;-83
2023/09/29 02:16:58;;;;;;;998.20;887.58;;;15.40;99.90;;;;;;4877567;29;20512;-83
2023/09/29 02:19:24;;;;;;;1033.50;899.50;;;15.40;99.90;;;;;;4892656;29;20066;-84
2023/09/29 02:21:50;;;;;;;1008.78;895.22;;;15.40;99.90;;;;;;4891912;29;20041;-83
2023/09/29 02:24:15;;;;;;;1008.72;884.90;;;15.40;99.90;;;;;;4877572;29;20056;-82
2023/09/29 02:26:41;;;;;;;976.55;870.35;;;15.40;99.90;;;;;;4875817;29;20053;-83
2023/09/29 02:29:10;;;;;;;1107.72;925.30;;;15.40;99.90;;;;;;4877462;29;20108;-83
2023/09/29 02:31:36;;;;;;;1117.50;924.67;;;15.40;99.90;;;;;;4876473;29;20067;-83
2023/09/29 02:34:06;;;;;;;1026.80;887.65;;;15.40;99.90;;;;;;4876050;29;20060;-82
2023/09/29 02:36:34;;;;;;;1002.05;883.08;;;15.40;99.90;;;;;;4877210;29;20382;-83
2023/09/29 02:39:03;;;;;;;1049.68;889.00;;;15.40;99.90;;;;;;4892353;29;20048;-82
2023/09/29 02:41:30;;;;;;;939.75;840.20;;;15.40;99.90;;;;;;4892218;29;20501;-82
2023/09/29 02:43:56;;;;;;;952.25;851.55;;;15.40;99.90;;;;;;4891864;29;20053;-83
2023/09/29 02:46:22;;;;;;;973.58;867.17;;;15.40;99.90;;;;;;4876195;29;20531;-83
2023/09/29 02:48:48;;;;;;;1031.18;897.30;;;15.50;99.90;;;;;;4875058;29;20084;-84
2023/09/29 02:51:19;;;;;;;1093.50;906.35;;;15.40;99.90;;;;;;4889967;29;20061;-83
2023/09/29 02:53:48;;;;;;;1001.13;883.33;;;15.40;99.90;;;;;;4891665;29;20142;-83
2023/09/29 02:56:16;;;;;;;975.30;868.65;;;15.50;99.90;;;;;;4876941;29;20105;-83
2023/09/29 02:58:46;;;;;;;927.35;829.70;;;15.50;99.90;;;;;;4892172;29;20052;-82
2023/09/29 03:01:16;;;;;;;950.22;846.85;;;15.50;99.90;;;;;;4875981;29;20386;-82
2023/09/29 03:03:46;;;;;;;893.72;803.45;;;15.50;99.90;;;;;;4876188;29;20044;-83
2023/09/29 03:06:21;;;;;;;971.58;867.75;;;15.40;99.90;;;;;;4876475;29;20064;-82
2023/09/29 03:08:58;;;;;;;913.03;818.72;;;15.50;99.90;;;;;;4875893;29;20052;-83
2023/09/29 03:11:25;;;;;;;925.15;828.45;;;15.40;99.90;;;;;;4879843;29;20045;-82
2023/09/29 03:13:54;;;;;;;886.22;796.15;;;15.40;99.90;;;;;;4876356;29;20533;-82
2023/09/29 03:16:24;;;;;;;948.67;845.90;;;15.40;99.90;;;;;;4891319;29;20052;-82
2023/09/29 03:18:50;;;;;;;896.25;805.40;;;15.40;99.90;;;;;;4877149;29;20136;-83
2023/09/29 03:21:16;;;;;;;867.63;779.38;;;15.40;99.90;;;;;;4875855;29;20044;-82
2023/09/29 03:23:42;;;;;;;908.10;814.72;;;15.40;99.90;;;;;;4884056;29;20053;-83
2023/09/29 03:26:09;;;;;;;914.78;820.83;;;15.40;99.90;;;;;;4876940;29;20527;-82
2023/09/29 03:28:35;;;;;;;906.30;813.70;;;15.40;99.90;;;;;;4862576;29;20071;-82
2023/09/29 03:31:06;;;;;;;868.72;780.85;;;15.30;99.90;;;;;;4885425;29;20048;-82
2023/09/29 03:33:32;;;;;;;911.53;818.97;;;15.40;99.90;;;;;;4891343;29;20095;-82
2023/09/29 03:35:58;;;;;;;941.10;842.40;;;15.40;99.90;;;;;;4892426;29;20049;-82
2023/09/29 03:38:25;;;;;;;925.90;829.00;;;15.40;99.90;;;;;;4891726;29;20074;-84
2023/09/29 03:40:52;;;;;;;947.30;846.35;;;15.40;99.90;;;;;;4889676;29;20053;-82
2023/09/29 03:43:19;;;;;;;955.67;853.05;;;15.40;99.90;;;;;;4875806;29;20037;-82
2023/09/29 03:45:46;;;;;;;930.42;831.67;;;15.40;99.90;;;;;;4874789;29;20655;-82
2023/09/29 03:48:15;;;;;;;964.08;859.55;;;15.40;99.90;;;;;;4876589;29;20100;-83
2023/09/29 03:50:41;;;;;;;907.75;812.88;;;15.50;99.90;;;;;;4878950;29;20116;-82
2023/09/29 03:53:07;;;;;;;962.67;859.13;;;15.50;99.90;;;;;;4876400;29;20091;-82
2023/09/29 03:55:36;;;;;;;944.45;843.40;;;15.50;99.90;;;;;;4907111;29;20128;-82
2023/09/29 03:58:02;;;;;;;987.03;878.35;;;15.50;99.90;;;;;;4875588;29;20132;-83
2023/09/29 04:00:29;;;;;;;1075.05;913.15;;;15.50;99.90;;;;;;4890527;29;20029;-83
2023/09/29 04:02:57;;;;;;;986.70;876.97;;;15.60;99.90;;;;;;4891561;29;20521;-82
2023/09/29 04:05:23;;;;;;;1093.75;917.55;;;15.60;99.90;;;;;;4874494;29;20049;-83
2023/09/29 04:07:49;;;;;;;1121.13;916.33;;;15.60;99.90;;;;;;4874731;29;20087;-83
2023/09/29 04:10:23;;;;;;;1061.72;911.78;;;15.70;99.90;;;;;;4891295;29;20064;-83
2023/09/29 04:12:49;;;;;;;1098.68;915.20;;;15.70;99.90;;;;;;4874621;29;20512;-83
2023/09/29 04:15:16;;;;;;;1136.30;932.15;;;15.70;99.90;;;;;;4874535;29;20039;-83
2023/09/29 04:17:42;;;;;;;1049.47;895.85;;;15.80;99.90;;;;;;4875350;29;20086;-83
2023/09/29 04:20:09;;;;;;;1011.03;875.53;;;15.70;99.90;;;;;;4890241;29;20036;-82
2023/09/29 04:22:35;;;;;;;1063.82;901.30;;;15.80;99.90;;;;;;4874983;29;20481;-83
2023/09/29 04:25:02;;;;;;;1136.75;929.30;;;15.80;99.90;;;;;;4874773;29;20159;-82
2023/09/29 04:27:28;;;;;;;1008.60;879.78;;;15.80;99.90;;;;;;4890008;29;20682;-83
2023/09/29 04:29:55;;;;;;;977.47;868.10;;;15.80;99.90;;;;;;4873126;29;20040;-83
2023/09/29 04:32:20;;;;;;;1045.00;895.97;;;15.90;99.90;;;;;;4874107;29;20148;-83
2023/09/29 04:34:46;;;;;;;977.58;868.55;;;15.80;99.90;;;;;;4889811;29;20140;-83
2023/09/29 04:37:13;;;;;;;1072.88;910.35;;;15.90;99.90;;;;;;4874042;29;20530;-83
2023/09/29 04:39:39;;;;;;;933.63;834.80;;;15.90;99.90;;;;;;4888839;29;20055;-83
2023/09/29 04:42:05;;;;;;;956.80;851.40;;;16.00;99.90;;;;;;4891359;29;20048;-83
2023/09/29 04:44:31;;;;;;;963.97;858.35;;;16.00;99.90;;;;;;4874708;29;20051;-83
2023/09/29 04:46:57;;;;;;;941.55;837.97;;;16.10;99.90;;;;;;4873988;29;20414;-83
2023/09/29 04:49:23;;;;;;;981.97;872.88;;;16.10;99.90;;;;;;4889244;29;20044;-83
2023/09/29 04:51:48;;;;;;;1024.85;889.28;;;16.10;99.90;;;;;;4888899;29;20048;-83
2023/09/29 04:54:14;;;;;;;999.25;879.20;;;16.10;99.90;;;;;;4884902;29;20080;-83
2023/09/29 04:56:40;;;;;;;1030.05;894.22;;;16.20;99.90;;;;;;4865517;29;20131;-84
2023/09/29 04:59:10;;;;;;;1066.20;906.35;;;16.20;99.90;;;;;;4873941;29;20068;-83
2023/09/29 05:01:36;;;;;;;1030.13;891.97;;;16.20;99.90;;;;;;4872724;29;20052;-84
2023/09/29 05:04:02;;;;;;;1103.32;923.65;;;16.20;99.90;;;;;;4890317;29;20044;-83
2023/09/29 05:06:29;;;;;;;1065.10;919.08;;;16.20;99.90;;;;;;4875553;29;20099;-83
2023/09/29 05:08:55;;;;;;;1032.50;905.65;;;16.20;99.90;;;;;;4889120;29;20564;-83
2023/09/29 05:11:26;;;;;;;1307.20;974.08;;;16.20;99.90;;;;;;4878943;29;20048;-83
2023/09/29 05:13:52;;;;;;;1106.65;929.85;;;16.20;99.90;;;;;;4880473;29;20187;-83
2023/09/29 05:16:19;;;;;;;1023.67;901.50;;;16.20;99.90;;;;;;4895727;29;20811;-83
2023/09/29 05:18:45;;;;;;;1020.20;908.10;;;16.20;99.90;;;;;;4875880;29;20045;-83
2023/09/29 05:21:14;;;;;;;1025.32;911.33;;;16.20;99.90;;;;;;4889992;29;20500;-83
2023/09/29 05:23:40;;;;;;;993.10;885.42;;;16.20;99.90;;;;;;4892145;29;20044;-83
2023/09/29 05:26:07;;;;;;;967.88;865.30;;;16.20;99.90;;;;;;4875214;29;20116;-84
2023/09/29 05:28:38;;;;;;;996.95;887.45;;;16.30;99.90;;;;;;4880326;29;20052;-83
2023/09/29 05:31:04;;;;;;;1003.55;895.20;;;16.30;99.90;;;;;;4896239;29;20176;-83
2023/09/29 05:33:30;;;;;;;972.83;869.83;;;16.30;99.90;;;;;;4896694;29;20059;-83
2023/09/29 05:35:57;;;;;;;980.20;874.78;;;16.30;99.90;;;;;;4893383;29;20044;-84
2023/09/29 05:38:23;;;;;;;1006.08;892.95;;;16.30;99.90;;;;;;4880921;29;20044;-84
2023/09/29 05:40:51;;;;;;;1002.95;892.97;;;16.30;99.90;;;;;;4879603;29;20059;-85
2023/09/29 05:43:17;;;;;;;1047.78;912.45;;;16.30;99.90;;;;;;4880314;29;20056;-84
2023/09/29 05:45:47;;;;;;;995.15;885.70;;;16.30;99.90;;;;;;4879274;29;20160;-84
2023/09/29 05:48:12;;;;;;;1000.42;890.65;;;16.30;99.90;;;;;;4880864;29;20501;-84
2023/09/29 05:50:38;;;;;;;1037.60;912.55;;;16.40;99.90;;;;;;4895499;29;20044;-84
2023/09/29 05:53:13;;;;;;;1005.47;891.90;;;16.40;99.90;;;;;;4880836;29;20642;-84
2023/09/29 05:56:08;;;;;;;1006.05;893.15;;;16.40;99.90;;;;;;4891878;29;20054;-84
2023/09/29 05:58:36;;;;;;;961.50;860.55;;;16.40;99.90;;;;;;4879918;29;20398;-84
2023/09/29 06:01:09;;;;;;;903.80;811.40;;;16.30;99.90;;;;;;4878458;29;20091;-84
2023/09/29 06:03:45;;;;;;;987.17;881.38;;;16.30;99.90;;;;;;4894030;29;20061;-84
2023/09/29 06:06:11;;;;;;;1061.05;922.40;;;16.30;99.90;;;;;;4896162;29;20108;-84
2023/09/29 06:08:40;;;;;;;998.25;881.53;;;16.40;99.90;;;;;;4895874;29;20501;-84
2023/09/29 06:11:06;;;;;;;1005.80;894.92;;;16.40;99.90;;;;;;4896210;29;20124;-84
2023/09/29 06:13:34;;;;;;;1096.35;923.50;;;16.40;99.90;;;;;;4894561;29;20505;-85
2023/09/29 06:16:02;;;;;;;1064.40;898.35;;;16.40;99.90;;;;;;4894659;29;20041;-84
2023/09/29 06:18:28;;;;;;;1043.07;888.17;;;16.40;99.90;;;;;;4893613;29;20124;-84
2023/09/29 06:20:54;;;;;;;1081.82;904.92;;;16.40;99.90;;;;;;4891394;29;20053;-84
2023/09/29 06:23:20;;;;;;;1090.00;906.97;;;16.40;99.90;;;;;;4874730;29;20048;-84
2023/09/29 06:25:45;;;;;;;1083.72;914.08;;;16.40;99.90;;;;;;4874534;29;20062;-85
2023/09/29 06:28:12;;;;;;;1068.85;898.40;;;16.40;99.90;;;;;;4890829;29;20573;-84
2023/09/29 06:30:47;;;;;;;1033.13;886.42;;;16.40;99.90;;;;;;4891057;29;20068;-84
2023/09/29 06:33:25;;;;;;;1095.28;916.17;;;16.40;99.90;;;;;;4890323;29;20085;-85
2023/09/29 06:38:43;;;;;;;1040.93;902.70;;;16.40;99.90;;;;;;4892762;29;20052;-84
2023/09/29 06:41:18;;;;;;;998.95;889.65;;;16.40;99.90;;;;;;4891840;29;20040;-84
2023/09/29 06:43:46;;;;;;;972.70;869.05;;;16.40;99.90;;;;;;4891853;29;20476;-84
2023/09/29 06:46:27;;;;;;;953.00;851.08;;;16.40;99.90;;;;;;4875791;29;20048;-84
2023/09/29 06:49:02;;;;;;;1008.58;890.97;;;16.40;99.90;;;;;;4892115;29;20437;-84
2023/09/29 06:51:28;;;;;;;1050.25;903.28;;;16.40;99.90;;;;;;4892012;29;20048;-84
2023/09/29 06:54:06;;;;;;;983.85;876.25;;;16.40;99.90;;;;;;4878793;29;20497;-84
2023/09/29 06:56:31;;;;;;;944.75;843.53;;;16.50;99.90;;;;;;4891896;29;20472;-85
2023/09/29 06:58:57;;;;;;;954.35;850.58;;;16.50;99.90;;;;;;4892225;29;20061;-84
2023/09/29 07:01:24;;;;;;;995.03;879.03;;;16.50;99.90;;;;;;4888251;29;20059;-84
2023/09/29 07:04:05;;;;;;;;;;;16.60;99.90;;;;;;4875232;29;20071;-85
2023/09/29 07:06:37;;;;;;;932.20;833.10;;;16.50;99.90;;;;;;4875834;29;19927;-84
2023/09/29 07:09:07;;;;;;;998.60;886.07;;;16.70;99.90;;;;;;4884262;29;20067;-84
2023/09/29 07:11:32;;;;;;;1016.75;889.72;;;16.70;99.90;;;;;;4891909;29;20052;-84
2023/09/29 07:14:19;;;;;;;962.22;858.40;;;16.70;99.90;;;;;;4881841;29;20074;-84
2023/09/29 07:16:49;;;;;;;929.53;829.33;;;16.80;99.90;;;;;;4890446;29;20128;-84
2023/09/29 07:19:28;;;;;;;914.17;819.20;;;16.90;99.90;;;;;;4890454;29;20083;-84
2023/09/29 07:21:53;;;;;;;912.22;815.13;;;17.00;99.90;;;;;;4889225;29;20052;-84
2023/09/29 07:24:19;;;;;;;923.38;826.20;;;17.00;99.90;;;;;;4875093;29;20108;-85
2023/09/29 07:26:45;;;;;;;995.60;884.80;;;17.10;99.90;;;;;;4889819;29;20049;-84
2023/09/29 07:29:11;;;;;;;983.15;874.92;;;17.10;99.90;;;;;;4874517;29;20048;-84
2023/09/29 07:31:47;;;;;;;968.28;864.70;;;17.20;99.90;;;;;;4873917;29;20163;-84
2023/09/29 07:34:16;;;;;;;966.92;862.55;;;17.30;99.90;;;;;;4875841;29;20061;-85
2023/09/29 07:36:44;;;;;;;956.67;855.78;;;17.30;99.90;;;;;;4890880;29;20386;-84
2023/09/29 07:39:20;;;;;;;955.00;852.85;;;17.30;99.90;;;;;;4891883;29;20148;-85
2023/09/29 07:41:46;;;;;;;1022.35;890.30;;;17.40;99.90;;;;;;4891835;29;20052;-85
2023/09/29 07:44:12;;;;;;;904.53;808.15;;;17.40;99.90;;;;;;4883056;29;20060;-84
2023/09/29 07:46:38;;;;;;;882.08;792.53;;;17.50;99.90;;;;;;4890563;29;20048;-83
2023/09/29 07:49:14;;;;;;;811.47;729.47;;;17.60;99.90;;;;;;4875621;29;20131;-86
2023/09/29 07:51:40;;;;;;;839.40;752.83;;;17.70;99.90;;;;;;4874944;29;20434;-84
2023/09/29 07:54:06;;;;;;;826.17;740.63;;;17.80;99.90;;;;;;4889844;29;20052;-84
2023/09/29 07:56:32;;;;;;;842.72;754.20;;;17.90;99.90;;;;;;4874548;29;20044;-84
2023/09/29 07:58:58;;;;;;;831.50;746.67;;;18.00;99.90;;;;;;4890607;29;20049;-84
2023/09/29 08:01:24;;;;;;;901.42;804.85;;;18.00;99.90;;;;;;4874745;29;20051;-84
2023/09/29 08:03:49;;;;;;;940.03;832.45;;;18.10;99.90;;;;;;4873655;29;20064;-84
2023/09/29 08:06:17;;;;;;;885.08;792.40;;;18.20;99.90;;;;;;4875491;29;20432;-84
2023/09/29 08:08:43;;;;;;;930.30;828.60;;;18.20;99.90;;;;;;4874393;29;21352;-84
2023/09/29 08:11:09;;;;;;;870.50;778.42;;;18.40;99.90;;;;;;4888861;29;20739;-85
2023/09/29 08:13:34;;;;;;;1094.32;902.33;;;18.40;99.90;;;;;;4886831;29;20330;-84
2023/09/29 08:16:00;;;;;;;1152.55;907.90;;;18.50;99.90;;;;;;4879774;29;20457;-84
2023/09/29 08:18:28;;;;;;;1135.20;914.03;;;18.60;99.90;;;;;;4872850;29;20088;-84
2023/09/29 08:20:54;;;;;;;1079.40;902.63;;;18.60;99.90;;;;;;4889066;29;20056;-84
2023/09/29 08:23:20;;;;;;;1173.30;938.22;;;18.70;99.90;;;;;;4874588;29;20127;-84
2023/09/29 08:25:50;;;;;;;1096.22;935.60;;;18.70;99.90;;;;;;4890175;29;20131;-84
2023/09/29 08:28:16;;;;;;;1127.82;935.28;;;18.70;99.90;;;;;;4875322;29;20145;-83
2023/09/29 08:30:41;;;;;;;1179.88;951.13;;;18.80;99.90;;;;;;4874888;29;20092;-83
2023/09/29 08:33:11;;;;;;;1100.28;914.47;;;18.80;99.90;;;;;;4875035;29;20052;-84
2023/09/29 08:36:03;;;;;;;1094.35;907.10;;;18.90;99.90;;;;;;4890939;29;20425;-84
2023/09/29 08:38:29;;;;;;;1139.63;920.45;;;19.00;99.90;;;;;;4874944;29;20560;-84
2023/09/29 08:40:55;;;;;;;1177.78;936.97;;;19.10;99.90;;;;;;4874550;29;20139;-84
2023/09/29 08:43:21;;;;;;;1141.75;949.47;;;19.20;99.90;;;;;;4891303;29;20390;-84
2023/09/29 08:45:49;;;;;;;1167.05;939.80;;;19.30;99.90;;;;;;4872274;29;20533;-83
2023/09/29 08:48:16;;;;;;;1112.30;928.90;;;19.40;99.90;;;;;;4875793;29;20067;-83
2023/09/29 08:50:45;;;;;;;1195.68;949.25;;;19.50;99.90;;;;;;4890542;29;20044;-84
2023/09/29 08:53:12;;;;;;;979.90;865.33;;;19.60;99.90;;;;;;4890066;29;20049;-84
2023/09/29 08:55:38;;;;;;;911.38;812.60;;;19.60;99.90;;;;;;4890200;29;20049;-84
2023/09/29 08:58:05;;;;;;;907.83;807.97;;;19.70;99.90;;;;;;4874725;29;20041;-84
2023/09/29 09:00:33;;;;;;;971.70;846.42;;;19.70;99.90;;;;;;4889048;29;20056;-84
2023/09/29 09:03:01;;;;;;;989.95;854.53;;;19.80;99.90;;;;;;4874065;29;20052;-82
2023/09/29 09:05:28;;;;;;;927.15;825.70;;;19.90;99.90;;;;;;4890745;29;20092;-84
2023/09/29 09:07:54;;;;;;;994.50;864.90;;;19.90;99.90;;;;;;4889224;29;20095;-83
2023/09/29 09:10:34;;;;;;;885.10;791.88;;;20.00;99.90;;;;;;4874789;29;20048;-84
2023/09/29 09:13:00;;;;;;;956.67;852.83;;;20.00;99.90;;;;;;4890284;29;20135;-83
2023/09/29 09:15:27;;;;;;;979.22;861.65;;;20.10;99.90;;;;;;4873515;29;20069;-83
2023/09/29 09:17:53;;;;;;;759.17;683.22;;;20.20;99.90;;;;;;4874333;29;20159;-84
2023/09/29 09:20:19;;;;;;;841.00;754.63;;;20.20;99.90;;;;;;4874634;29;20041;-84
2023/09/29 09:22:59;;;;;;;818.95;735.70;;;20.20;99.90;;;;;;4888704;29;20049;-83
2023/09/29 09:25:37;;;;;;;754.10;678.80;;;20.20;99.90;;;;;;4878464;29;20116;-85
2023/09/29 09:28:03;;;;;;;764.35;688.38;;;20.20;99.90;;;;;;4874392;29;20397;-84
2023/09/29 09:30:35;;;;;;;789.88;711.35;;;20.20;99.90;;;;;;4889065;29;20226;-84
2023/09/29 09:33:02;;;;;;;849.85;761.83;;;20.20;99.90;;;;;;4889924;29;20055;-85
2023/09/29 09:35:29;;;;;;;841.20;755.00;;;20.30;99.90;;;;;;4872649;29;20052;-85
2023/09/29 09:37:56;;;;;;;832.72;749.13;;;20.40;99.90;;;;;;4873609;29;20043;-85
2023/09/29 09:40:26;;;;;;;869.75;780.30;;;20.50;99.90;;;;;;4889052;29;20497;-86
2023/09/29 09:42:53;;;;;;;962.80;859.47;;;20.70;99.90;;;;;;4865167;29;20477;-85
2023/09/29 09:45:28;;;;;;;769.25;691.17;;;20.80;99.90;;;;;;4865969;29;20044;-86
2023/09/29 09:47:59;;;;;;;668.38;602.65;;;21.00;99.90;;;;;;4891023;29;20100;-86
2023/09/29 09:50:30;;;;;;;616.45;554.95;;;21.10;99.90;;;;;;4884273;29;20060;-85
2023/09/29 09:52:58;;;;;;;559.28;505.98;;;21.20;99.90;;;;;;4874477;29;20100;-86
2023/09/29 09:55:33;;;;;;;601.85;544.08;;;21.20;99.90;;;;;;4874969;29;20037;-86
2023/09/29 09:58:01;;;;;;;504.27;461.00;;;21.20;99.90;;;;;;4874558;29;20052;-86
2023/09/29 10:00:27;;;;;;;506.23;459.52;;;21.20;99.90;;;;;;4872893;29;20047;-86
2023/09/29 10:02:57;;;;;;;649.58;587.35;;;21.20;99.90;;;;;;4892255;29;20048;-85
2023/09/29 10:05:25;;;;;;;529.10;483.77;;;21.20;99.90;;;;;;4893460;29;20060;-85
2023/09/29 10:07:55;;;;;;;575.25;522.67;;;21.20;99.90;;;;;;4893211;29;20056;-86
2023/09/29 10:13:34;;;;;;;539.63;491.25;;;21.10;99.90;;;;;;4892810;29;20057;-87
2023/09/29 10:16:03;;;;;;;523.97;476.02;;;21.00;99.90;;;;;;4868401;29;20115;-87
2023/09/29 10:18:30;;;;;;;571.78;519.55;;;21.00;99.90;;;;;;4893363;29;20052;-85
2023/09/29 10:21:06;;;;;;;634.42;574.53;;;21.00;99.90;;;;;;4893490;29;20543;-86
2023/09/29 10:23:48;;;;;;;568.83;518.10;;;21.00;99.90;;;;;;4878279;29;20044;-86
2023/09/29 10:26:14;;;;;;;609.23;554.00;;;21.10;99.90;;;;;;4876566;29;20055;-87
2023/09/29 10:32:10;;;;;;;716.27;649.90;;;21.10;99.90;;;;;;4938807;23;20412;-93
2023/09/29 10:35:18;;;;;;;615.30;558.30;;;21.00;99.90;;;;;;4917591;29;20062;-94
2023/09/29 10:38:22;;;;;;;509.65;463.08;;;21.10;99.90;;;;;;4898894;29;20111;-94
2023/09/29 10:44:31;;;;;;;438.63;401.20;;;21.10;99.90;;;;;;4909009;29;20052;-94
2023/09/29 10:50:49;;;;;;;563.75;514.13;;;21.00;99.90;;;;;;4882327;29;20052;-94
2023/09/29 10:53:39;;;;;;;610.17;558.50;;;20.80;99.90;;;;;;4896857;29;20064;-94
2023/09/29 10:56:49;;;;;;;609.15;555.70;;;20.90;99.90;;;;;;4898553;29;20056;-93
2023/09/29 10:59:25;;;;;;;769.60;699.65;;;20.70;99.90;;;;;;4898187;29;20066;-93
2023/09/29 11:02:14;;;;;;;739.42;673.92;;;20.70;99.90;;;;;;4892646;29;20060;-93
2023/09/29 11:04:58;;;;;;;757.38;689.90;;;20.60;99.90;;;;;;4899401;29;20083;-95
2023/09/29 11:08:20;;;;;;;760.28;691.35;;;20.50;99.90;;;;;;4891291;29;20058;-92
2023/09/29 11:11:12;;;;;;;803.78;728.08;;;20.50;99.90;;;;;;4891202;29;20103;-93
2023/09/29 11:13:58;;;;;;;904.97;812.47;;;20.50;99.90;;;;;;4889040;29;20067;-92
2023/09/29 11:17:02;;;;;;;863.60;778.00;;;20.70;99.90;;;;;;4890275;29;20404;-94
2023/09/29 11:19:30;;;;;;;826.55;747.75;;;20.80;99.90;;;;;;4866540;29;20056;-93
2023/09/29 11:22:29;;;;;;;790.78;717.53;;;20.80;99.90;;;;;;4883169;29;20055;-93
2023/09/29 11:25:32;;;;;;;829.85;750.08;;;20.80;99.90;;;;;;4893038;29;20168;-94
2023/09/29 11:28:17;;;;;;;796.03;723.83;;;20.60;99.90;;;;;;4883313;29;20059;-94
2023/09/29 11:30:57;;;;;;;842.20;760.15;;;20.60;99.90;;;;;;4892287;29;20072;-94
2023/09/29 11:34:12;;;;;;;;;;;;;;;;;;;;;
2023/09/29 11:36:48;;;;;;;907.72;813.72;;;20.50;99.90;;;;;;4900285;29;20056;-95
2023/09/29 11:39:25;;;;;;;859.53;775.22;;;20.40;99.90;;;;;;4895125;29;20040;-93
2023/09/29 11:42:00;;;;;;;910.28;816.13;;;20.40;99.90;;;;;;4886063;29;20052;-94
2023/09/29 11:45:07;;;;;;;920.45;823.90;;;20.40;99.90;;;;;;4878466;29;20052;-93
2023/09/29 11:48:21;;;;;;;888.05;796.40;;;20.30;99.90;;;;;;4894146;29;20058;-94
2023/09/29 11:51:33;;;;;;;908.47;812.30;;;20.20;99.90;;;;;;4892240;29;20059;-94
2023/09/29 11:54:40;;;;;;;903.45;808.63;;;20.10;99.90;;;;;;4886068;29;20095;-94
2023/09/29 11:57:21;;;;;;;869.08;780.55;;;20.00;99.90;;;;;;5028927;23;20052;-83
2023/09/29 11:59:47;;;;;;;878.63;792.15;;;19.90;99.90;;;;;;4899430;29;20051;-84
2023/09/29 12:02:14;;;;;;;823.38;748.55;;;19.80;99.90;;;;;;4887969;29;20063;-84
2023/09/29 12:04:40;;;;;;;822.72;750.10;;;19.70;99.90;;;;;;4884193;29;20067;-85
2023/09/29 12:07:05;;;;;;;833.17;757.50;;;19.70;99.90;;;;;;4888241;29;20501;-84
2023/09/29 12:09:31;;;;;;;869.40;789.83;;;19.70;99.90;;;;;;4902077;29;20048;-84
2023/09/29 12:12:00;;;;;;;876.28;794.67;;;19.70;99.90;;;;;;4893036;29;20441;-83
2023/09/29 12:14:27;;;;;;;826.97;752.10;;;19.70;99.90;;;;;;4893333;29;20134;-83
2023/09/29 12:16:54;;;;;;;864.20;783.58;;;19.80;99.90;;;;;;4864462;29;20052;-83
2023/09/29 12:19:20;;;;;;;875.38;793.47;;;19.70;99.90;;;;;;4885082;29;20495;-84
2023/09/29 12:21:47;;;;;;;842.58;764.70;;;19.60;99.90;;;;;;4889858;29;20075;-85
2023/09/29 12:24:14;;;;;;;883.13;799.67;;;19.60;99.90;;;;;;4884686;29;20044;-84
2023/09/29 12:26:46;;;;;;;801.30;721.90;;;19.50;99.90;;;;;;4890553;29;20389;-85
2023/09/29 12:29:12;;;;;;;921.50;814.10;;;19.30;99.90;;;;;;4886628;29;20036;-85
2023/09/29 12:31:38;;;;;;;956.65;844.67;;;19.10;99.90;;;;;;4884349;29;20148;-87
2023/09/29 12:34:04;;;;;;;905.00;806.58;;;18.90;99.90;;;;;;4905832;29;20131;-86
2023/09/29 12:36:31;;;;;;;921.30;819.85;;;18.70;99.90;;;;;;4883401;29;20135;-85
2023/09/29 12:39:00;;;;;;;883.15;788.80;;;18.60;99.90;;;;;;4894113;29;20040;-84
2023/09/29 12:41:26;;;;;;;866.10;781.28;;;18.40;99.90;;;;;;4903416;29;20152;-90